• Join FlightAware (Why Join?)
  • Login
  • US Flag 
02:14AM EDT


 

Airport Tracker/Info


-or-


 

Live Flight TrackerFlight Track Log ✈ N577K ✈ 28-Sep-2013 ✈ 2G9 - KTHV

Flight Track Log - Related Links

Times and Time Zones

All times are in EDT time to prevent confusion due to time zone crossing. See the N577K flight status page for this flight to view local times or setup timezone preferences in your user account.

Time Position Orientation Groundspeed Altitude Reporting Facility
EDT Latitude Longitude Course Direction KTS MPH feet Rate Location/Type
08:51AM 40.0328 -78.6806 94° East 161 185 7,400  Level Cleveland Center
08:52AM 40.0322 -78.6439 91° East 164 189 7,500  Climbing Cleveland Center
08:52AM 40.0308 -78.6258 96° East 160 184 7,400  Descending Cleveland Center
08:53AM 40.0289 -78.5847 94° East 166 191 7,500  Climbing Cleveland Center
08:53AM 40.0272 -78.5653 96° East 157 181 7,400  Descending Cleveland Center
08:54AM 40.0261 -78.5306 92° East 157 181 7,500  Climbing Cleveland Center
08:54AM 40.0233 -78.5075 99° East 156 180 7,400  Descending Cleveland Center
08:55AM 40.0228 -78.4742 91° East 156 180 7,500  Climbing Cleveland Center
08:55AM 40.0200 -78.4417 96° East 156 180 7,400  Descending Cleveland Center
08:56AM 40.0194 -78.4178 92° East 157 181 7,500  Climbing Cleveland Center
08:56AM 40.0158 -78.3867 99° East 158 182 7,400  Descending Cleveland Center
08:57AM 40.0158 -78.3653 90° East 151 174 7,500  Climbing Cleveland Center
08:57AM 40.0122 -78.3264 97° East 159 183 7,400  Descending Cleveland Center
08:58AM 40.0119 -78.2958 91° East 160 184 7,500  Climbing Cleveland Center
08:58AM 40.0086 -78.2631 98° East 158 182 7,400  Descending Cleveland Center
08:59AM 40.0078 -78.2403 93° East 160 184 7,500  Climbing Cleveland Center
08:59AM 40.0061 -78.2139 95° East 156 180 7,400  Descending Cleveland Center
09:00AM 40.0039 -78.1847 96° East 156 180 7,500  Climbing Cleveland Center
09:00AM 40.0036 -78.1617 91° East 157 181 7,400  Descending Cleveland Center
09:01AM 40.0003 -78.1286 97° East 155 178 7,500  Climbing Cleveland Center
09:01AM 39.9994 -78.1067 93° East 156 180 7,400  Descending Cleveland Center
09:02AM 39.9978 -78.0711 93° East 158 182 7,500  Climbing Cleveland Center
09:02AM 39.9956 -78.0464 97° East 157 181 7,400  Descending Cleveland Center
09:03AM 39.9939 -78.0139 94° East 159 183 7,500 -120 Climbing Cleveland Center
09:04AM 39.9908 -77.9578 94° East 156 180 7,200 -420 Descending Cleveland Center
09:05AM 39.9850 -77.8836 96° East 167 192 6,700 -540 Descending Cleveland Center
09:06AM 39.9819 -77.8233 94° East 169 194 6,200 -540 Descending Cleveland Center
09:07AM 39.9775 -77.7639 96° East 166 191 5,700 -420 Descending Cleveland Center
09:08AM 39.9744 -77.7061 94° East 162 186 5,400 -420 Descending Cleveland Center
09:09AM 39.9700 -77.6508 96° East 158 182 4,900 -480 Descending Cleveland Center
09:10AM 39.9669 -77.5892 94° East 164 189 4,500 -420 Descending Cleveland Center
09:11AM 39.9625 -77.5297 96° East 166 191 4,100 -300 Descending Cleveland Center
09:12AM 39.9583 -77.4728 95° East 162 186 4,000 -60 Descending Cleveland Center
09:13AM 39.9544 -77.4181 95° East 158 182 4,000 -120 Level Cleveland Center
09:14AM 39.9500 -77.3550 95° East 152 175 3,800 -240 Descending Cleveland Center